Time;durP1;ratioP1;P1;durP2;ratioP2;P2;SDS_P1;SDS_P2;PMS_P1;PMS_P2;Temp;Humidity;BMP_temperature;BMP_pressure;BME280_temperature;BME280_humidity;BME280_pressure;Samples;Min_cycle;Max_cycle;Signal;HPM_P1;HPM_P2
2021/01/21 00:01:16;;;;;;;3.87;1.87;;;3.60;99.90;;;;;;4884057;29;20413;-79
2021/01/21 00:03:42;;;;;;;2.28;1.73;;;3.60;99.90;;;;;;4875426;29;20422;-79
2021/01/21 00:06:08;;;;;;;2.27;1.90;;;3.70;99.90;;;;;;4881154;29;20404;-79
2021/01/21 00:08:34;;;;;;;1.87;1.77;;;3.60;99.90;;;;;;4885273;29;20432;-79
2021/01/21 00:10:59;;;;;;;3.05;2.00;;;3.50;99.90;;;;;;4832772;29;20404;-80
2021/01/21 00:13:25;;;;;;;2.15;1.90;;;3.50;99.90;;;;;;4865860;29;20469;-80
2021/01/21 00:15:51;;;;;;;2.10;1.90;;;3.40;99.90;;;;;;4879693;29;20908;-79
2021/01/21 00:18:17;;;;;;;1.77;1.60;;;3.50;99.90;;;;;;4873759;29;20427;-79
2021/01/21 00:20:42;;;;;;;2.00;1.85;;;3.40;99.90;;;;;;4879685;29;21054;-79
2021/01/21 00:23:08;;;;;;;1.60;1.50;;;3.30;99.90;;;;;;4877415;29;20418;-79
2021/01/21 00:25:33;;;;;;;2.33;1.73;;;3.20;99.90;;;;;;4875485;29;20439;-79
2021/01/21 00:27:59;;;;;;;2.03;1.80;;;3.20;99.90;;;;;;4878170;29;20427;-79
2021/01/21 00:30:25;;;;;;;1.73;1.63;;;3.30;99.90;;;;;;4873642;29;20409;-79
2021/01/21 00:32:51;;;;;;;2.58;1.85;;;3.20;99.90;;;;;;4879225;29;21100;-78
2021/01/21 00:35:16;;;;;;;2.25;1.95;;;3.20;99.90;;;;;;4898771;29;20987;-79
2021/01/21 00:37:42;;;;;;;1.50;1.40;;;3.20;99.90;;;;;;4885440;29;20426;-78
2021/01/21 00:40:09;;;;;;;2.80;1.63;;;3.30;99.90;;;;;;4868590;29;20423;-78
2021/01/21 00:42:34;;;;;;;2.63;1.70;;;3.20;99.90;;;;;;4901143;29;20411;-78
2021/01/21 00:45:00;;;;;;;1.53;1.43;;;3.10;99.90;;;;;;4897579;29;20477;-79
2021/01/21 00:47:25;;;;;;;2.05;1.88;;;3.20;99.90;;;;;;4884239;29;20442;-78
2021/01/21 00:49:51;;;;;;;2.30;1.70;;;3.30;99.90;;;;;;4873448;29;20980;-79
2021/01/21 00:52:17;;;;;;;2.28;1.85;;;3.40;99.90;;;;;;4904727;29;20436;-78
2021/01/21 00:54:43;;;;;;;3.13;1.88;;;3.60;99.90;;;;;;4912547;29;20391;-78
2021/01/21 00:57:09;;;;;;;1.77;1.67;;;3.40;99.90;;;;;;4881551;29;20411;-78
2021/01/21 00:59:35;;;;;;;2.30;1.80;;;3.30;99.90;;;;;;4894002;29;20433;-78
2021/01/21 01:02:01;;;;;;;3.67;2.05;;;3.30;99.90;;;;;;4855161;29;20438;-79
2021/01/21 01:04:28;;;;;;;1.90;1.80;;;3.50;99.90;;;;;;4876917;29;20419;-79
2021/01/21 01:06:54;;;;;;;3.13;2.05;;;3.60;99.90;;;;;;4872697;29;20413;-79
2021/01/21 01:09:20;;;;;;;2.28;1.75;;;3.70;99.90;;;;;;4886539;29;20956;-79
2021/01/21 01:11:47;;;;;;;2.67;2.23;;;3.80;99.90;;;;;;4885375;29;20397;-79
2021/01/21 01:14:13;;;;;;;1.90;1.80;;;3.90;99.90;;;;;;4864917;29;20512;-78
2021/01/21 01:16:39;;;;;;;2.17;1.98;;;4.10;99.90;;;;;;4870507;29;20447;-79
2021/01/21 01:19:08;;;;;;;2.38;2.03;;;4.40;99.90;;;;;;4875814;29;20417;-79
2021/01/21 01:21:34;;;;;;;2.63;2.30;;;4.40;99.90;;;;;;4868791;29;20407;-79
2021/01/21 01:23:59;;;;;;;2.20;2.00;;;4.60;99.90;;;;;;4869848;29;20476;-79
2021/01/21 01:26:26;;;;;;;2.80;2.00;;;4.60;99.90;;;;;;4880996;29;20477;-79
2021/01/21 01:28:59;;;;;;;3.30;2.10;;;4.70;99.90;;;;;;4866843;29;20420;-79
2021/01/21 01:31:28;;;;;;;3.00;1.80;;;4.70;99.90;;;;;;4884896;29;20409;-79
2021/01/21 01:33:55;;;;;;;3.28;2.08;;;4.70;99.90;;;;;;4876338;29;20408;-79
2021/01/21 01:36:22;;;;;;;2.78;2.40;;;4.80;99.90;;;;;;4899655;29;20424;-79
2021/01/21 01:38:47;;;;;;;2.47;2.00;;;5.00;99.90;;;;;;4892182;29;20422;-79
2021/01/21 01:41:39;;;;;;;2.15;1.88;;;4.70;99.90;;;;;;4877809;29;20831;-79
2021/01/21 01:44:05;;;;;;;2.33;2.10;;;4.80;99.90;;;;;;4867762;29;20435;-79
2021/01/21 01:46:30;;;;;;;2.20;2.00;;;5.10;99.90;;;;;;4882410;29;20413;-78
2021/01/21 01:48:59;;;;;;;2.23;2.00;;;5.10;99.90;;;;;;4885123;29;20418;-79
2021/01/21 01:51:30;;;;;;;2.33;2.13;;;5.10;99.90;;;;;;4880957;29;20468;-79
2021/01/21 01:53:58;;;;;;;2.22;2.03;;;5.10;99.90;;;;;;4868128;29;20399;-79
2021/01/21 01:56:27;;;;;;;2.05;1.85;;;5.10;99.90;;;;;;4882674;29;20426;-79
2021/01/21 01:59:04;;;;;;;3.20;2.40;;;5.10;99.90;;;;;;4888278;29;20461;-78
2021/01/21 02:01:45;;;;;;;2.15;1.95;;;5.10;99.90;;;;;;4879611;29;20420;-79
2021/01/21 02:04:16;;;;;;;2.40;2.20;;;5.00;99.90;;;;;;4878066;29;20411;-79
2021/01/21 02:07:01;;;;;;;3.20;2.40;;;5.10;99.90;;;;;;4882728;29;20474;-79
2021/01/21 02:09:28;;;;;;;2.38;2.08;;;5.00;99.90;;;;;;4869301;29;20406;-79
2021/01/21 02:12:20;;;;;;;3.13;2.30;;;5.10;99.90;;;;;;4915252;29;20409;-79
2021/01/21 02:14:48;;;;;;;3.53;2.43;;;5.10;99.90;;;;;;4892535;29;20449;-79
2021/01/21 02:17:38;;;;;;;2.75;2.40;;;5.10;99.90;;;;;;4919391;29;20449;-79
2021/01/21 02:20:35;;;;;;;2.95;2.45;;;5.30;99.90;;;;;;4886338;29;20415;-79
2021/01/21 02:23:29;;;;;;;3.20;2.27;;;5.20;99.90;;;;;;4895071;29;20416;-80
2021/01/21 02:26:08;;;;;;;3.53;2.47;;;5.20;99.90;;;;;;4895557;29;20958;-79
2021/01/21 02:28:58;;;;;;;3.40;2.63;;;5.20;99.90;;;;;;4881118;29;20408;-79
2021/01/21 02:31:44;;;;;;;3.92;2.10;;;5.10;99.90;;;;;;4868372;29;20449;-79
2021/01/21 02:34:12;;;;;;;3.65;2.28;;;5.20;99.90;;;;;;4871977;29;20423;-79
2021/01/21 02:36:40;;;;;;;2.75;2.40;;;5.10;99.90;;;;;;4882676;29;20412;-79
2021/01/21 02:39:13;;;;;;;3.20;2.70;;;5.20;99.90;;;;;;4875604;29;20434;-79
2021/01/21 02:41:41;;;;;;;3.45;2.08;;;5.20;99.90;;;;;;4887558;29;20792;-80
2021/01/21 02:44:08;;;;;;;5.35;2.58;;;5.20;99.90;;;;;;4859379;29;20420;-80
2021/01/21 02:46:35;;;;;;;3.30;2.40;;;5.20;99.90;;;;;;4884351;29;20437;-80
2021/01/21 02:49:02;;;;;;;3.83;2.88;;;5.20;99.90;;;;;;4874764;29;20918;-79
2021/01/21 02:51:33;;;;;;;2.30;2.08;;;5.20;99.90;;;;;;4875740;29;20409;-80
2021/01/21 02:54:06;;;;;;;5.28;2.90;;;5.20;99.90;;;;;;4895281;29;20768;-79
2021/01/21 02:56:34;;;;;;;3.00;2.33;;;5.20;99.90;;;;;;4878495;29;20429;-79
2021/01/21 02:59:01;;;;;;;4.43;2.58;;;5.10;99.90;;;;;;4896418;29;20457;-80
2021/01/21 03:01:29;;;;;;;2.85;2.40;;;5.10;99.90;;;;;;4912290;29;20484;-80
2021/01/21 03:13:27;;;;;;;3.47;2.22;;;4.90;99.90;;;;;;5825845;23;20501;-79
2021/01/21 03:15:53;;;;;;;3.17;2.63;;;4.90;99.90;;;;;;4894923;29;20405;-79
2021/01/21 03:18:20;;;;;;;4.18;2.58;;;4.80;99.90;;;;;;4896324;29;20764;-79
2021/01/21 03:20:47;;;;;;;2.97;2.67;;;4.90;99.90;;;;;;4896997;29;20913;-79
2021/01/21 03:23:22;;;;;;;3.20;2.60;;;4.80;99.90;;;;;;4898321;29;20888;-78
2021/01/21 03:25:58;;;;;;;2.67;2.47;;;5.00;99.90;;;;;;4892550;29;20401;-79
2021/01/21 03:28:24;;;;;;;4.20;2.85;;;4.90;99.90;;;;;;4897057;29;20413;-79
2021/01/21 03:30:50;;;;;;;4.40;2.60;;;5.00;99.90;;;;;;4887856;29;20413;-79
2021/01/21 03:33:18;;;;;;;2.92;2.42;;;5.20;99.90;;;;;;4894838;29;20409;-79
2021/01/21 03:35:49;;;;;;;3.95;2.58;;;5.20;99.90;;;;;;4895847;29;20505;-78
2021/01/21 03:38:19;;;;;;;3.08;2.58;;;5.30;99.90;;;;;;4911691;29;20473;-79
2021/01/21 03:41:08;;;;;;;2.65;2.38;;;5.30;99.90;;;;;;4891120;29;20409;-79
2021/01/21 03:43:37;;;;;;;4.88;3.03;;;5.00;99.90;;;;;;4891905;29;20410;-79
2021/01/21 03:46:17;;;;;;;3.13;2.70;;;5.30;99.90;;;;;;4868735;29;20420;-79
2021/01/21 03:48:46;;;;;;;3.85;2.67;;;5.20;99.90;;;;;;4892628;29;20419;-79
2021/01/21 03:51:31;;;;;;;2.70;2.50;;;5.20;99.90;;;;;;4905744;29;20403;-79
2021/01/21 03:54:11;;;;;;;3.05;2.60;;;5.40;99.90;;;;;;4891646;29;20415;-79
2021/01/21 03:56:38;;;;;;;3.55;3.00;;;5.40;99.90;;;;;;4892442;29;20445;-79
2021/01/21 03:59:04;;;;;;;3.63;2.70;;;5.30;99.90;;;;;;4898040;29;20424;-79
2021/01/21 04:01:33;;;;;;;2.95;2.65;;;5.50;99.90;;;;;;4887486;29;20488;-79
2021/01/21 04:03:59;;;;;;;3.53;2.30;;;5.30;99.90;;;;;;4879909;29;20423;-80
2021/01/21 04:06:29;;;;;;;3.75;2.72;;;5.40;99.90;;;;;;4880457;29;20405;-80
2021/01/21 04:09:05;;;;;;;3.17;2.67;;;5.30;99.90;;;;;;4896778;29;20405;-79
2021/01/21 04:11:40;;;;;;;3.28;2.85;;;5.40;99.90;;;;;;4896818;29;20418;-79
2021/01/21 04:14:15;;;;;;;3.42;2.60;;;5.50;99.90;;;;;;4896335;29;20425;-79
2021/01/21 04:16:41;;;;;;;3.30;2.70;;;5.40;99.90;;;;;;4889100;29;20436;-79
2021/01/21 04:19:08;;;;;;;3.38;2.85;;;5.40;99.90;;;;;;4877798;29;20508;-78
2021/01/21 04:21:34;;;;;;;4.10;2.80;;;5.30;99.90;;;;;;4891353;29;20414;-79
2021/01/21 04:24:10;;;;;;;3.47;2.90;;;5.30;99.90;;;;;;4884165;29;20401;-78
2021/01/21 04:26:41;;;;;;;3.42;3.05;;;5.40;99.90;;;;;;4926277;29;21400;-79
2021/01/21 04:29:08;;;;;;;3.95;2.90;;;5.30;99.90;;;;;;4898971;29;20413;-78
2021/01/21 04:31:34;;;;;;;4.32;3.28;;;5.30;99.90;;;;;;4883815;29;20523;-78
2021/01/21 04:34:11;;;;;;;3.20;2.90;;;5.30;99.90;;;;;;4895096;29;20487;-78
2021/01/21 04:36:38;;;;;;;3.20;2.90;;;5.30;99.90;;;;;;4873596;29;20429;-78
2021/01/21 04:39:05;;;;;;;3.95;3.20;;;5.40;99.90;;;;;;4919629;29;20458;-79
2021/01/21 04:41:34;;;;;;;3.28;2.97;;;5.50;99.90;;;;;;4898790;29;20401;-78
2021/01/21 04:44:07;;;;;;;4.38;3.15;;;5.50;99.90;;;;;;4910570;29;20786;-78
2021/01/21 04:46:59;;;;;;;3.57;2.93;;;5.50;99.90;;;;;;4909637;29;20496;-78
2021/01/21 04:49:30;;;;;;;5.05;3.42;;;5.40;99.90;;;;;;4895915;29;20437;-78
2021/01/21 04:51:58;;;;;;;4.25;3.28;;;5.40;99.90;;;;;;4894378;29;20409;-78
2021/01/21 04:54:43;;;;;;;4.03;3.28;;;5.40;99.90;;;;;;4900419;29;20432;-78
2021/01/21 04:57:15;;;;;;;4.75;3.28;;;5.40;99.90;;;;;;4903172;29;20428;-78
2021/01/21 04:59:52;;;;;;;3.85;3.45;;;5.40;99.90;;;;;;4916216;29;20409;-79
2021/01/21 05:02:27;;;;;;;4.70;3.35;;;5.30;99.90;;;;;;4897095;29;20447;-79
2021/01/21 05:05:14;;;;;;;3.97;3.60;;;5.30;99.90;;;;;;4900170;29;20407;-78
2021/01/21 05:07:45;;;;;;;3.80;3.50;;;5.20;99.90;;;;;;4927074;29;20417;-79
2021/01/21 05:10:14;;;;;;;5.38;3.70;;;5.10;99.90;;;;;;4915255;29;20409;-79
2021/01/21 05:12:40;;;;;;;5.50;4.07;;;5.00;99.90;;;;;;4906837;29;20471;-79
2021/01/21 05:15:28;;;;;;;5.38;4.15;;;5.00;99.90;;;;;;4895535;29;20417;-79
2021/01/21 05:18:13;;;;;;;5.67;4.17;;;5.10;99.90;;;;;;4897409;29;20484;-78
2021/01/21 05:21:11;;;;;;;5.13;4.05;;;4.90;99.90;;;;;;4911093;29;20413;-79
2021/01/21 05:24:08;;;;;;;5.82;4.55;;;5.00;99.90;;;;;;4869799;29;20762;-79
2021/01/21 05:26:56;;;;;;;6.03;4.05;;;5.00;99.90;;;;;;4898642;29;20420;-79
2021/01/21 05:29:45;;;;;;;6.00;4.15;;;5.00;99.90;;;;;;4904881;29;20767;-79
2021/01/21 05:38:18;;;;;;;5.18;4.68;;;5.10;99.90;;;;;;3275657;27;20401;-79
2021/01/21 05:41:19;;;;;;;4.97;4.20;;;5.10;99.90;;;;;;4888727;29;20402;-79
2021/01/21 05:44:05;;;;;;;4.35;3.80;;;5.20;99.90;;;;;;4874575;29;20401;-77
2021/01/21 05:46:45;;;;;;;7.13;3.83;;;5.10;99.90;;;;;;4861997;29;20501;-79
2021/01/21 05:49:11;;;;;;;5.15;3.72;;;5.10;99.90;;;;;;4860993;29;21104;-79
2021/01/21 05:51:38;;;;;;;4.60;3.92;;;5.10;99.90;;;;;;4866115;29;20414;-79
2021/01/21 05:54:13;;;;;;;3.47;3.17;;;5.20;99.90;;;;;;4865135;29;20478;-78
2021/01/21 05:56:53;;;;;;;4.82;3.55;;;5.10;99.90;;;;;;4829463;29;20449;-81
2021/01/21 05:59:19;;;;;;;5.30;3.70;;;5.20;99.90;;;;;;4872270;29;20401;-79
2021/01/21 06:01:54;;;;;;;5.40;3.60;;;5.20;99.90;;;;;;4862214;29;20391;-79
2021/01/21 06:04:26;;;;;;;3.70;3.30;;;5.20;99.90;;;;;;4860358;29;20476;-79
2021/01/21 06:06:53;;;;;;;4.03;3.40;;;5.20;99.90;;;;;;4857892;29;20404;-79
2021/01/21 06:09:28;;;;;;;3.97;3.58;;;5.20;99.90;;;;;;4860395;29;20417;-80
2021/01/21 06:12:04;;;;;;;4.47;3.50;;;5.10;99.90;;;;;;4878619;29;20417;-79
2021/01/21 06:14:30;;;;;;;5.18;3.70;;;5.10;99.90;;;;;;4874175;29;20472;-79
2021/01/21 06:16:56;;;;;;;3.97;3.20;;;5.10;99.90;;;;;;4876228;29;20423;-79
2021/01/21 06:19:22;;;;;;;3.92;3.40;;;5.10;99.90;;;;;;4866700;29;20421;-80
2021/01/21 06:22:00;;;;;;;3.90;3.38;;;5.20;99.90;;;;;;4865974;29;20404;-79
2021/01/21 06:24:46;;;;;;;3.72;3.38;;;5.20;99.90;;;;;;4878620;29;20440;-80
2021/01/21 06:27:14;;;;;;;3.65;3.35;;;5.20;99.90;;;;;;4865528;29;21154;-80
2021/01/21 06:29:40;;;;;;;4.53;3.35;;;5.20;99.90;;;;;;4887989;29;20428;-80
2021/01/21 06:32:08;;;;;;;4.40;3.10;;;5.30;99.90;;;;;;4850618;29;20401;-79
2021/01/21 06:34:36;;;;;;;3.58;3.10;;;5.30;99.90;;;;;;4865849;29;20412;-80
2021/01/21 06:37:18;;;;;;;3.35;3.05;;;5.30;99.90;;;;;;4852139;29;20414;-79
2021/01/21 06:39:52;;;;;;;4.78;3.05;;;5.30;99.90;;;;;;4879925;29;20440;-79
2021/01/21 06:42:23;;;;;;;4.07;3.22;;;5.40;99.90;;;;;;4863903;29;20435;-79
2021/01/21 06:44:51;;;;;;;4.97;3.30;;;5.30;99.90;;;;;;4880019;29;20424;-79
2021/01/21 06:47:19;;;;;;;3.37;3.07;;;5.30;99.90;;;;;;4863685;29;20468;-79
2021/01/21 06:49:44;;;;;;;5.07;3.40;;;5.30;99.90;;;;;;4865311;29;20408;-79
2021/01/21 06:52:10;;;;;;;3.83;3.40;;;5.30;99.90;;;;;;4888561;29;20411;-79
2021/01/21 06:54:35;;;;;;;5.30;3.45;;;5.40;99.90;;;;;;4878627;29;20503;-79
2021/01/21 06:57:01;;;;;;;4.17;3.57;;;5.50;99.90;;;;;;4877385;29;20446;-79
2021/01/21 06:59:50;;;;;;;3.88;3.58;;;5.50;99.90;;;;;;4864382;29;20819;-80
2021/01/21 07:02:50;;;;;;;4.93;3.60;;;5.50;99.90;;;;;;4878230;29;20842;-80
2021/01/21 07:05:20;;;;;;;4.90;3.25;;;5.50;99.90;;;;;;4848696;29;20417;-79
2021/01/21 07:08:01;;;;;;;4.82;3.35;;;5.70;99.90;;;;;;4875008;29;20417;-79
2021/01/21 07:10:28;;;;;;;3.30;2.97;;;5.60;99.90;;;;;;4895698;29;20401;-80
2021/01/21 07:12:54;;;;;;;4.60;3.60;;;5.50;99.90;;;;;;4864524;29;20435;-81
2021/01/21 07:15:29;;;;;;;4.05;3.53;;;5.60;99.90;;;;;;4877105;29;20416;-81
2021/01/21 07:18:01;;;;;;;3.60;3.30;;;5.60;99.90;;;;;;4861849;29;20417;-81
2021/01/21 07:20:26;;;;;;;3.95;3.50;;;5.60;99.90;;;;;;4861551;29;20789;-81
2021/01/21 07:23:03;;;;;;;4.57;3.78;;;5.60;99.90;;;;;;4877403;29;20421;-81
2021/01/21 07:25:30;;;;;;;4.70;3.47;;;5.70;99.90;;;;;;4856676;29;20451;-82
2021/01/21 07:27:56;;;;;;;4.03;3.60;;;5.80;99.90;;;;;;4866245;29;20503;-82
2021/01/21 07:30:25;;;;;;;4.93;3.40;;;5.60;99.90;;;;;;4870697;29;20844;-82
2021/01/21 07:33:26;;;;;;;5.05;3.28;;;5.60;99.90;;;;;;4854280;29;20406;-81
2021/01/21 07:35:52;;;;;;;4.80;3.95;;;5.50;99.90;;;;;;4848988;29;20406;-82
2021/01/21 07:38:47;;;;;;;4.88;3.60;;;5.70;99.90;;;;;;4829085;29;20509;-81
2021/01/21 07:41:54;;;;;;;4.38;3.50;;;5.60;99.90;;;;;;4859135;29;20441;-81
2021/01/21 07:44:20;;;;;;;6.47;3.90;;;5.70;99.90;;;;;;4855919;29;20934;-82
2021/01/21 07:46:47;;;;;;;6.63;4.25;;;5.60;99.90;;;;;;4842450;29;20417;-82
2021/01/21 07:49:22;;;;;;;4.68;4.22;;;5.60;99.90;;;;;;4832259;29;20432;-81
2021/01/21 07:52:03;;;;;;;4.00;3.60;;;5.60;99.90;;;;;;4866178;29;20428;-81
2021/01/21 07:54:30;;;;;;;4.03;3.63;;;5.80;99.90;;;;;;4858910;29;20768;-81
2021/01/21 07:57:06;;;;;;;4.53;4.00;;;5.70;99.90;;;;;;4831060;29;20423;-82
2021/01/21 08:00:29;;;;;;;4.22;3.42;;;5.70;99.90;;;;;;4848233;29;20416;-81
2021/01/21 08:14:52;;;;;;;6.03;4.22;;;5.70;99.90;;;;;;4854504;29;20470;-81
2021/01/21 08:17:17;;;;;;;4.80;4.00;;;5.70;99.90;;;;;;4808582;29;20422;-80
2021/01/21 08:19:43;;;;;;;5.17;3.97;;;5.70;99.90;;;;;;4809532;29;20409;-81
2021/01/21 08:22:09;;;;;;;4.93;4.20;;;6.00;99.90;;;;;;4810281;29;20411;-81
2021/01/21 08:24:58;;;;;;;4.80;3.83;;;5.70;99.90;;;;;;4838522;29;20429;-81
2021/01/21 08:27:24;;;;;;;3.90;3.45;;;5.80;99.90;;;;;;4826184;29;20407;-82
2021/01/21 08:29:49;;;;;;;4.53;4.13;;;5.80;99.90;;;;;;4854371;29;20750;-81
2021/01/21 08:32:15;;;;;;;4.47;3.97;;;5.80;99.90;;;;;;4823894;29;20425;-82
2021/01/21 08:34:41;;;;;;;6.20;4.03;;;5.80;99.90;;;;;;4855627;29;20398;-81
2021/01/21 08:37:07;;;;;;;4.90;4.35;;;5.80;99.90;;;;;;4854868;29;20507;-81
2021/01/21 08:39:33;;;;;;;4.65;4.20;;;5.80;99.90;;;;;;4839446;29;20950;-81
2021/01/21 08:41:58;;;;;;;4.88;3.72;;;6.00;99.90;;;;;;4811813;29;20921;-81
2021/01/21 08:44:24;;;;;;;5.00;4.07;;;5.90;99.90;;;;;;4838953;29;20525;-81
2021/01/21 08:46:57;;;;;;;5.80;4.17;;;5.90;99.90;;;;;;4823965;29;20410;-81
2021/01/21 08:49:23;;;;;;;5.85;4.00;;;6.00;99.90;;;;;;4831752;29;20405;-81
2021/01/21 08:51:49;;;;;;;5.57;4.32;;;6.00;99.90;;;;;;4816674;29;20469;-81
2021/01/21 08:54:18;;;;;;;4.43;3.97;;;6.10;99.90;;;;;;4855541;29;20773;-81
2021/01/21 08:57:04;;;;;;;4.70;4.28;;;6.20;99.90;;;;;;4810424;29;20894;-81
2021/01/21 08:59:30;;;;;;;4.22;3.80;;;6.30;99.90;;;;;;4825372;29;20430;-81
2021/01/21 09:01:56;;;;;;;5.70;4.10;;;6.30;99.90;;;;;;4822824;29;20414;-81
2021/01/21 09:04:32;;;;;;;5.35;4.05;;;6.40;99.90;;;;;;4806695;29;20503;-79
2021/01/21 09:06:59;;;;;;;6.80;4.00;;;6.40;99.90;;;;;;4824452;29;20501;-80
2021/01/21 09:09:26;;;;;;;3.95;3.58;;;6.40;99.90;;;;;;4856743;29;20418;-80
2021/01/21 09:11:51;;;;;;;4.90;3.88;;;6.50;99.90;;;;;;4825009;29;20820;-81
2021/01/21 09:14:18;;;;;;;6.05;4.20;;;6.40;99.90;;;;;;4856153;29;20418;-81
2021/01/21 09:16:48;;;;;;;4.28;3.80;;;6.30;99.90;;;;;;4855911;29;20411;-81
2021/01/21 09:19:15;;;;;;;5.53;3.88;;;6.30;99.90;;;;;;4826183;29;20415;-80
2021/01/21 09:21:57;;;;;;;3.72;3.35;;;6.40;99.90;;;;;;4825607;29;20412;-81
2021/01/21 09:24:23;;;;;;;4.78;3.90;;;6.40;99.90;;;;;;4825730;29;20421;-81
2021/01/21 09:27:13;;;;;;;4.60;4.03;;;6.50;99.90;;;;;;4820172;29;20421;-81
2021/01/21 09:29:58;;;;;;;5.43;4.30;;;6.50;99.90;;;;;;4855185;29;20557;-82
2021/01/21 09:39:39;;;;;;;5.27;3.27;;;6.90;99.90;;;;;;5103984;23;20429;-80
2021/01/21 09:42:05;;;;;;;4.22;3.70;;;7.00;99.90;;;;;;4887096;29;20405;-80
2021/01/21 09:44:31;;;;;;;5.45;4.05;;;7.00;99.90;;;;;;4872740;29;20920;-80
2021/01/21 09:46:57;;;;;;;3.97;3.47;;;7.20;99.90;;;;;;4870667;29;20423;-79
2021/01/21 09:49:24;;;;;;;4.97;3.35;;;7.10;99.90;;;;;;4881029;29;20955;-79
2021/01/21 09:51:50;;;;;;;4.60;3.83;;;7.30;99.90;;;;;;4873998;29;20427;-80
2021/01/21 09:54:16;;;;;;;3.72;3.42;;;7.20;99.90;;;;;;4878504;29;20402;-80
2021/01/21 09:56:42;;;;;;;4.70;3.33;;;7.20;99.90;;;;;;4879507;29;20468;-80
2021/01/21 09:59:08;;;;;;;3.75;3.00;;;7.20;99.90;;;;;;4893686;29;20415;-80
2021/01/21 10:01:34;;;;;;;5.53;3.63;;;7.20;99.90;;;;;;4875152;29;20887;-80
2021/01/21 10:04:01;;;;;;;4.47;3.28;;;7.30;99.90;;;;;;4859844;29;20461;-80
2021/01/21 10:06:27;;;;;;;4.40;3.40;;;7.20;99.90;;;;;;4878530;29;20418;-80
2021/01/21 10:08:53;;;;;;;3.70;3.00;;;7.20;99.90;;;;;;4870103;29;20926;-80
2021/01/21 10:11:19;;;;;;;4.53;3.53;;;7.30;99.90;;;;;;4895196;29;20403;-80
2021/01/21 10:13:45;;;;;;;4.03;2.88;;;7.20;99.90;;;;;;4878456;29;20438;-80
2021/01/21 10:16:11;;;;;;;3.35;3.05;;;7.30;99.90;;;;;;4877808;29;20406;-81
2021/01/21 10:18:40;;;;;;;3.42;3.10;;;7.40;99.90;;;;;;4895263;29;20480;-80
2021/01/21 10:21:09;;;;;;;5.13;3.67;;;7.50;99.90;;;;;;4869707;29;21726;-80
2021/01/21 10:23:35;;;;;;;4.05;3.10;;;7.70;99.90;;;;;;4894757;29;20410;-80
2021/01/21 10:26:01;;;;;;;3.22;2.90;;;7.80;99.90;;;;;;4894730;29;20407;-80
2021/01/21 10:28:30;;;;;;;3.38;2.78;;;7.80;99.90;;;;;;4887844;29;20411;-80
2021/01/21 10:30:56;;;;;;;4.13;3.40;;;7.90;99.90;;;;;;4893620;29;20418;-80
2021/01/21 10:33:24;;;;;;;3.17;2.88;;;7.90;99.90;;;;;;4863383;29;20421;-80
2021/01/21 10:35:51;;;;;;;5.95;3.15;;;8.00;99.90;;;;;;4878871;29;20494;-81
2021/01/21 10:38:17;;;;;;;3.55;3.10;;;8.20;99.90;;;;;;4878540;29;20427;-80
2021/01/21 10:40:43;;;;;;;3.45;2.78;;;8.30;99.90;;;;;;4864877;29;20471;-80
2021/01/21 10:43:09;;;;;;;2.75;2.50;;;8.30;99.90;;;;;;4848558;29;20403;-81
2021/01/21 10:45:35;;;;;;;3.30;2.90;;;8.30;99.90;;;;;;4863456;29;20478;-80
2021/01/21 10:48:01;;;;;;;2.95;2.65;;;8.30;99.90;;;;;;4864932;29;20896;-81
2021/01/21 10:50:27;;;;;;;4.30;2.65;;;8.30;99.90;;;;;;4864213;29;20430;-80
2021/01/21 11:05:05;;;;;;;2.92;2.63;;;8.70;99.90;;;;;;5749055;23;20867;-78
2021/01/21 11:07:31;;;;;;;4.57;2.80;;;8.60;99.90;;;;;;4877729;29;20405;-78
2021/01/21 11:09:58;;;;;;;3.05;2.75;;;8.90;99.90;;;;;;4848268;29;20914;-78
2021/01/21 11:12:24;;;;;;;4.83;3.03;;;8.90;99.90;;;;;;4857764;29;20914;-79
2021/01/21 11:14:53;;;;;;;3.45;2.95;;;8.70;99.90;;;;;;4861212;29;20814;-79
2021/01/21 11:17:19;;;;;;;4.03;2.55;;;8.90;99.90;;;;;;4857451;29;20448;-78
2021/01/21 11:19:45;;;;;;;3.33;2.90;;;9.00;99.90;;;;;;4857891;29;20414;-78
2021/01/21 11:22:12;;;;;;;6.38;2.58;;;9.10;99.90;;;;;;4849068;29;20988;-79
2021/01/21 11:24:38;;;;;;;3.33;2.85;;;9.10;99.90;;;;;;4862876;29;20426;-79
2021/01/21 11:27:06;;;;;;;3.60;2.97;;;9.10;99.90;;;;;;4838008;29;20416;-79
2021/01/21 11:29:32;;;;;;;3.10;2.80;;;9.20;99.90;;;;;;4872610;29;20443;-78
2021/01/21 11:31:58;;;;;;;3.08;2.78;;;9.20;99.90;;;;;;4856825;29;20414;-78
2021/01/21 11:34:24;;;;;;;2.60;2.40;;;9.10;99.90;;;;;;4843630;29;20772;-78
2021/01/21 11:36:51;;;;;;;3.15;2.60;;;9.10;99.90;;;;;;4843747;29;20427;-79
2021/01/21 11:39:16;;;;;;;3.08;2.63;;;9.10;99.90;;;;;;4844038;29;20425;-78
2021/01/21 11:41:42;;;;;;;3.17;2.85;;;9.20;99.90;;;;;;4872039;29;20404;-78
2021/01/21 11:44:08;;;;;;;3.03;2.57;;;9.20;99.90;;;;;;4870777;29;20404;-79
2021/01/21 11:46:34;;;;;;;3.00;2.63;;;9.20;99.90;;;;;;4854585;29;20423;-77
2021/01/21 11:48:59;;;;;;;4.20;2.60;;;9.20;99.90;;;;;;4867312;29;20464;-78
2021/01/21 11:51:25;;;;;;;2.73;2.43;;;9.20;99.90;;;;;;4844090;29;20418;-79
2021/01/21 11:53:51;;;;;;;3.15;2.85;;;9.30;99.90;;;;;;4857674;29;20411;-78
2021/01/21 11:56:16;;;;;;;2.60;2.40;;;9.30;99.90;;;;;;4857524;29;20828;-79
2021/01/21 11:58:42;;;;;;;2.70;2.50;;;9.30;99.90;;;;;;4872609;29;20426;-79
2021/01/21 12:01:08;;;;;;;3.25;2.80;;;9.20;99.90;;;;;;4842352;29;20811;-80
2021/01/21 12:03:34;;;;;;;3.70;2.78;;;9.40;99.90;;;;;;4872916;29;20418;-78
2021/01/21 12:06:01;;;;;;;2.80;2.37;;;9.40;99.90;;;;;;4872781;29;20421;-78
2021/01/21 12:08:27;;;;;;;3.10;2.80;;;9.50;99.90;;;;;;4858402;29;20489;-77
2021/01/21 12:10:53;;;;;;;2.65;2.42;;;9.50;99.90;;;;;;4877025;29;20417;-78
2021/01/21 12:13:18;;;;;;;6.95;3.13;;;9.50;99.90;;;;;;4875895;29;20445;-79
2021/01/21 12:15:44;;;;;;;3.57;2.97;;;9.40;99.90;;;;;;4860143;29;20415;-80
2021/01/21 12:18:10;;;;;;;2.90;2.63;;;9.50;99.90;;;;;;4875767;29;20799;-79
2021/01/21 12:20:35;;;;;;;3.23;2.80;;;9.50;99.90;;;;;;4861662;29;20400;-79
2021/01/21 12:23:01;;;;;;;5.72;2.72;;;9.50;99.90;;;;;;4868278;29;20915;-78
2021/01/21 12:25:27;;;;;;;3.03;2.72;;;9.50;99.90;;;;;;4858040;29;20869;-81
2021/01/21 12:27:53;;;;;;;2.97;2.70;;;9.40;99.90;;;;;;4871771;29;20422;-82
2021/01/21 12:30:19;;;;;;;3.42;3.10;;;9.40;99.90;;;;;;4862438;29;20495;-82
2021/01/21 12:32:44;;;;;;;3.70;2.88;;;9.40;99.90;;;;;;4874680;29;20914;-82
2021/01/21 12:35:10;;;;;;;3.37;3.00;;;9.40;99.90;;;;;;4840986;29;20418;-81
2021/01/21 12:37:36;;;;;;;3.30;3.00;;;9.40;99.90;;;;;;4850506;29;20425;-82
2021/01/21 12:40:03;;;;;;;4.28;2.80;;;9.70;99.90;;;;;;4841679;29;20406;-82
2021/01/21 12:42:28;;;;;;;3.25;2.95;;;10.00;99.90;;;;;;4876552;29;20476;-80
2021/01/21 12:44:54;;;;;;;2.92;2.72;;;10.10;99.90;;;;;;4858117;29;20442;-80
2021/01/21 12:47:20;;;;;;;2.97;2.77;;;10.10;99.90;;;;;;4840524;29;20971;-80
2021/01/21 12:49:46;;;;;;;3.23;2.87;;;10.10;99.90;;;;;;4839532;29;20958;-80
2021/01/21 12:52:12;;;;;;;3.80;3.17;;;10.00;99.90;;;;;;4839747;29;20425;-79
2021/01/21 12:54:38;;;;;;;3.10;2.70;;;9.80;99.90;;;;;;4855952;29;20422;-80
2021/01/21 12:57:05;;;;;;;3.65;2.70;;;9.90;99.90;;;;;;4838879;29;20462;-79
2021/01/21 12:59:31;;;;;;;3.00;2.70;;;9.90;99.90;;;;;;4854878;29;20406;-79
2021/01/21 13:01:57;;;;;;;3.65;2.72;;;9.90;99.90;;;;;;4871829;29;20465;-81
2021/01/21 13:04:23;;;;;;;3.25;2.72;;;9.90;99.90;;;;;;4858685;29;20779;-80
2021/01/21 13:06:49;;;;;;;5.18;2.88;;;10.00;99.90;;;;;;4854866;29;20559;-79
2021/01/21 13:09:15;;;;;;;3.13;2.83;;;9.90;99.90;;;;;;4855232;29;21609;-80
2021/01/21 13:11:41;;;;;;;3.20;2.63;;;9.90;99.90;;;;;;4870518;29;20784;-80
2021/01/21 13:14:07;;;;;;;3.22;2.72;;;9.90;99.90;;;;;;4871413;29;20411;-80
2021/01/21 13:16:34;;;;;;;4.90;3.22;;;9.80;99.90;;;;;;4869549;29;20422;-80
2021/01/21 13:19:00;;;;;;;4.23;3.20;;;9.80;99.90;;;;;;4840680;29;20414;-80
2021/01/21 13:21:26;;;;;;;3.00;2.70;;;9.70;99.90;;;;;;4839870;29;20418;-79
2021/01/21 13:23:53;;;;;;;3.53;2.60;;;9.90;99.90;;;;;;4838141;29;20456;-80
2021/01/21 13:26:19;;;;;;;3.42;2.70;;;9.90;99.90;;;;;;4840294;29;20475;-80
2021/01/21 13:28:46;;;;;;;2.95;2.65;;;9.80;99.90;;;;;;4840155;29;21030;-80
2021/01/21 13:31:12;;;;;;;3.72;2.92;;;9.80;99.90;;;;;;4853471;29;20406;-80
2021/01/21 13:33:38;;;;;;;4.40;2.80;;;9.80;99.90;;;;;;4840168;29;20406;-81
2021/01/21 13:36:05;;;;;;;3.23;2.80;;;9.80;99.90;;;;;;4855696;29;20896;-80
2021/01/21 13:38:31;;;;;;;3.60;2.72;;;9.80;99.90;;;;;;4839163;29;20505;-80
2021/01/21 13:40:58;;;;;;;3.53;2.88;;;9.90;99.90;;;;;;4855946;29;20416;-80
2021/01/21 13:43:24;;;;;;;2.53;2.33;;;9.80;99.90;;;;;;4834157;29;20906;-80
2021/01/21 13:45:51;;;;;;;3.67;2.83;;;9.90;99.90;;;;;;4868741;29;20414;-80
2021/01/21 13:48:17;;;;;;;3.28;2.67;;;9.80;99.90;;;;;;4855118;29;20413;-81
2021/01/21 13:50:43;;;;;;;2.60;2.40;;;9.80;99.90;;;;;;4872544;29;20406;-80
2021/01/21 13:53:09;;;;;;;3.95;2.85;;;9.80;99.90;;;;;;4886075;29;20421;-81
2021/01/21 13:55:38;;;;;;;2.80;2.60;;;9.70;99.90;;;;;;4860192;29;20406;-80
2021/01/21 13:58:04;;;;;;;2.92;2.45;;;9.80;99.90;;;;;;4870818;29;20433;-80
2021/01/21 14:00:30;;;;;;;4.38;2.83;;;9.70;99.90;;;;;;4854307;29;20490;-80